ADDS METAR Data INFO
IDs: Format: Raw Decoded Include TAF

Data at: 1937 UTC 17 Jul 2018

METAR for:KMIE (Muncie/Johnson Fld, IN, US)
Text:KMIE 171853Z 34011KT 10SM FEW065 31/14 A3003 RMK AO2 SLP156 T03060144
Temperature: 30.6°C ( 87°F)
Dewpoint: 14.4°C ( 58°F) [RH = 37%]
Pressure (altimeter):30.03 inches Hg (1017.0 mb) [Sea level pressure: 1015.6 mb]
Winds:from the NNW (340 degrees) at 13 MPH (11 knots; 5.7 m/s)
Visibility:10 or more sm (16+ km)
Ceiling:at least 12,000 feet AGL
Clouds: few clouds at 6500 feet AGL